createdAt,value
2022-11-26T00:02:44.222Z,80.76
2022-11-26T00:05:57.607Z,81.26
2022-11-26T00:09:06.406Z,80.59
2022-11-26T00:12:20.274Z,80.71
2022-11-26T00:15:30.580Z,80.85
2022-11-26T00:18:36.508Z,80.48
2022-11-26T00:21:46.400Z,80.61
2022-11-26T00:24:53.476Z,80.46
2022-11-26T00:28:02.616Z,80.74
2022-11-26T00:31:17.640Z,81.07
2022-11-26T00:34:24.419Z,80.79
2022-11-26T00:37:46.202Z,81.08
2022-11-26T00:40:53.105Z,80.80
2022-11-26T00:43:59.058Z,79.75
2022-11-26T00:47:06.111Z,79.50
2022-11-26T00:50:18.706Z,79.21
2022-11-26T00:53:30.318Z,78.49
2022-11-26T00:56:38.247Z,78.17
2022-11-26T00:59:45.212Z,77.92
2022-11-26T01:02:52.185Z,77.83
2022-11-26T01:06:02.654Z,78.13
2022-11-26T01:09:22.238Z,77.56
2022-11-26T01:12:29.009Z,78.38
2022-11-26T01:15:34.877Z,78.35
2022-11-26T01:18:41.796Z,77.86
2022-11-26T01:21:47.852Z,77.52
2022-11-26T01:24:57.376Z,77.69
2022-11-26T01:28:03.487Z,77.35
2022-11-26T01:31:18.582Z,76.98
2022-11-26T01:34:24.529Z,78.02
2022-11-26T01:37:31.374Z,78.81
2022-11-26T01:41:05.471Z,79.13
2022-11-26T01:44:22.156Z,78.18
2022-11-26T01:47:31.731Z,78.04
2022-11-26T01:51:00.672Z,78.11
2022-11-26T01:54:07.031Z,79.29
2022-11-26T01:57:23.938Z,79.76
2022-11-26T02:00:29.972Z,79.75
2022-11-26T02:03:47.049Z,80.01
2022-11-26T02:06:55.239Z,79.52
2022-11-26T02:10:02.135Z,80.04
2022-11-26T02:13:10.971Z,79.78
2022-11-26T02:16:37.200Z,79.75
2022-11-26T02:20:28.203Z,79.15
2022-11-26T02:24:12.745Z,79.72
2022-11-26T02:28:11.870Z,79.45
2022-11-26T02:31:32.720Z,79.40
2022-11-26T02:34:51.659Z,79.53
2022-11-26T02:38:05.918Z,79.30
2022-11-26T02:41:12.799Z,79.50
2022-11-26T02:44:24.194Z,79.29
2022-11-26T02:47:37.668Z,79.11
2022-11-26T02:50:51.614Z,79.07
2022-11-26T02:54:00.060Z,79.05
2022-11-26T02:57:14.947Z,79.03
2022-11-26T03:00:23.504Z,78.53
2022-11-26T03:03:41.443Z,79.44
2022-11-26T03:06:50.965Z,80.92
2022-11-26T03:10:00.953Z,81.06
2022-11-26T03:13:07.751Z,81.27
2022-11-26T03:16:13.694Z,81.78
2022-11-26T03:19:23.108Z,81.66
2022-11-26T03:22:29.677Z,81.27
2022-11-26T03:25:37.014Z,81.70
2022-11-26T03:28:43.068Z,81.19
2022-11-26T03:31:49.947Z,81.08
2022-11-26T03:34:58.574Z,80.83
2022-11-26T03:38:05.347Z,80.65
2022-11-26T03:41:11.277Z,80.52
2022-11-26T03:44:18.459Z,80.80
2022-11-26T03:47:24.794Z,80.78
2022-11-26T03:50:34.155Z,80.50
2022-11-26T03:53:40.035Z,80.36
2022-11-26T03:56:46.783Z,80.72
2022-11-26T03:59:52.820Z,81.11
2022-11-26T04:02:59.683Z,81.02
2022-11-26T04:06:09.735Z,80.54
2022-11-26T04:09:16.691Z,80.13
2022-11-26T04:12:22.736Z,80.10
2022-11-26T04:15:29.483Z,79.76
2022-11-26T04:18:36.025Z,79.80
2022-11-26T04:21:45.635Z,79.94
2022-11-26T04:24:51.764Z,80.26
2022-11-26T04:27:59.146Z,80.72
2022-11-26T04:31:05.141Z,80.87
2022-11-26T04:34:11.916Z,81.28
2022-11-26T04:37:20.525Z,80.90
2022-11-26T04:40:27.250Z,80.62
2022-11-26T04:43:33.372Z,79.99
2022-11-26T04:46:40.194Z,79.89
2022-11-26T04:49:46.181Z,79.53
2022-11-26T04:52:55.782Z,79.51
2022-11-26T04:56:01.781Z,79.92
2022-11-26T04:59:08.502Z,80.46
2022-11-26T05:02:14.867Z,81.76
2022-11-26T05:05:21.979Z,81.23
2022-11-26T05:08:30.537Z,80.90
2022-11-26T05:11:37.291Z,80.66
2022-11-26T05:14:43.257Z,79.80
2022-11-26T05:17:49.969Z,79.20
2022-11-26T05:20:55.912Z,78.67
2022-11-26T05:24:05.469Z,78.96
2022-11-26T05:27:12.435Z,78.52
2022-11-26T05:30:19.781Z,78.11
2022-11-26T05:33:25.685Z,77.82
2022-11-26T05:36:32.371Z,77.89
2022-11-26T05:39:41.079Z,77.16
2022-11-26T05:42:48.214Z,77.48
2022-11-26T05:45:54.193Z,77.85
2022-11-26T05:49:01.142Z,77.38
2022-11-26T05:52:07.318Z,77.05
2022-11-26T05:55:16.731Z,77.00
2022-11-26T05:58:22.944Z,77.11
2022-11-26T06:01:29.751Z,76.53
2022-11-26T06:04:36.726Z,76.34
2022-11-26T06:07:45.092Z,76.36
2022-11-26T06:10:53.916Z,76.20
2022-11-26T06:14:00.639Z,76.06
2022-11-26T06:17:06.615Z,75.85
2022-11-26T06:20:15.609Z,75.85
2022-11-26T06:23:21.604Z,75.90
2022-11-26T06:26:31.173Z,75.44
2022-11-26T06:29:37.405Z,75.18
2022-11-26T06:32:44.217Z,75.72
2022-11-26T06:35:50.129Z,75.17
2022-11-26T06:38:56.778Z,75.38
2022-11-26T06:42:05.319Z,75.40
2022-11-26T06:45:14.211Z,75.39
2022-11-26T06:48:20.131Z,75.20
2022-11-26T06:51:27.974Z,75.50
2022-11-26T06:54:34.124Z,75.63
2022-11-26T06:57:43.450Z,75.91
2022-11-26T07:00:49.397Z,76.09
2022-11-26T07:03:56.855Z,75.92
2022-11-26T07:07:02.825Z,75.75
2022-11-26T07:10:11.395Z,75.78
2022-11-26T07:13:20.014Z,75.78
2022-11-26T07:16:28.146Z,75.54
2022-11-26T07:19:34.217Z,75.08
2022-11-26T07:22:41.247Z,75.35
2022-11-26T07:25:47.347Z,74.81
2022-11-26T07:28:56.982Z,75.11
2022-11-26T07:32:03.015Z,75.19
2022-11-26T07:35:11.313Z,75.01
2022-11-26T07:38:17.418Z,75.12
2022-11-26T07:41:25.672Z,74.63
2022-11-26T07:44:34.551Z,74.48
2022-11-26T07:47:41.523Z,74.00
2022-11-26T07:50:48.148Z,74.06
2022-11-26T07:53:56.573Z,74.12
2022-11-26T07:57:02.521Z,74.02
2022-11-26T08:00:14.096Z,74.93
2022-11-26T08:03:20.041Z,74.83
2022-11-26T08:06:30.484Z,75.12
2022-11-26T08:09:36.667Z,75.73
2022-11-26T08:12:43.795Z,76.38
2022-11-26T08:15:54.223Z,76.48
2022-11-26T08:19:04.077Z,76.88
2022-11-26T08:22:10.095Z,76.91
2022-11-26T08:25:16.925Z,77.27
2022-11-26T08:28:23.197Z,78.03
2022-11-26T08:31:35.165Z,77.95
2022-11-26T08:34:42.300Z,78.60
2022-11-26T08:37:49.100Z,78.56
2022-11-26T08:40:55.280Z,78.25
2022-11-26T08:44:06.517Z,77.81
2022-11-26T08:47:16.787Z,77.77
2022-11-26T08:50:23.635Z,79.24
2022-11-26T08:53:32.427Z,79.23
2022-11-26T08:56:40.236Z,79.60
2022-11-26T08:59:46.111Z,79.86
2022-11-26T09:02:55.511Z,79.89
2022-11-26T09:06:04.577Z,80.37
2022-11-26T09:09:15.857Z,80.47
2022-11-26T09:12:22.092Z,80.09
2022-11-26T09:15:29.078Z,80.23
2022-11-26T09:18:37.592Z,79.72
2022-11-26T09:21:44.442Z,79.74
2022-11-26T09:24:50.459Z,80.00
2022-11-26T09:27:57.257Z,79.71
2022-11-26T09:31:04.880Z,79.97
2022-11-26T09:34:15.435Z,80.29
2022-11-26T09:37:21.298Z,80.03
2022-11-26T09:40:50.649Z,79.69
2022-11-26T09:44:22.460Z,80.56
2022-11-26T09:47:38.866Z,80.51
2022-11-26T09:50:54.005Z,80.14
2022-11-26T09:54:04.701Z,80.64
2022-11-26T09:57:30.563Z,80.16
2022-11-26T10:00:44.174Z,80.38
2022-11-26T10:03:50.474Z,80.60
2022-11-26T10:07:17.517Z,81.30
2022-11-26T10:10:35.408Z,81.76
2022-11-26T10:13:57.399Z,80.79
2022-11-26T10:17:29.197Z,80.25
2022-11-26T10:21:18.210Z,80.03
2022-11-26T10:24:39.518Z,79.75
2022-11-26T10:27:47.206Z,80.11
2022-11-26T10:31:02.727Z,78.77
2022-11-26T10:34:20.260Z,78.65
2022-11-26T10:37:29.268Z,78.78
2022-11-26T10:40:39.421Z,78.81
2022-11-26T10:43:45.486Z,79.24
2022-11-26T10:46:52.243Z,78.25
2022-11-26T10:53:58.697Z,78.07
2022-11-26T10:57:21.981Z,77.96
2022-11-26T11:00:42.169Z,78.27
2022-11-26T11:04:10.772Z,78.23
2022-11-26T11:07:44.312Z,77.86
2022-11-26T11:10:59.620Z,77.87
2022-11-26T11:14:09.051Z,78.82
2022-11-26T11:17:36.464Z,78.54
2022-11-26T11:20:55.006Z,79.06
2022-11-26T11:24:12.363Z,80.16
2022-11-26T11:27:30.982Z,80.07
2022-11-26T11:30:43.624Z,79.94
2022-11-26T11:33:52.155Z,80.13
2022-11-26T11:37:11.728Z,80.48
2022-11-26T11:40:27.756Z,80.05
2022-11-26T11:43:40.040Z,80.10
2022-11-26T11:47:24.484Z,79.75
2022-11-26T11:50:39.323Z,79.39
2022-11-26T11:54:07.713Z,79.71
2022-11-26T11:57:38.355Z,79.88
2022-11-26T12:00:58.472Z,79.29
2022-11-26T12:04:46.341Z,79.67
2022-11-26T12:08:10.948Z,79.00
2022-11-26T12:11:41.163Z,78.78
2022-11-26T12:14:55.453Z,79.27
2022-11-26T12:18:16.419Z,80.36
2022-11-26T12:21:42.506Z,80.01
2022-11-26T12:24:58.035Z,78.67
2022-11-26T12:28:18.180Z,79.30
2022-11-26T12:31:35.864Z,78.77
2022-11-26T12:34:52.947Z,78.48
2022-11-26T12:38:10.874Z,78.64
2022-11-26T12:41:27.500Z,78.45
2022-11-26T12:44:43.091Z,78.26
2022-11-26T12:48:01.058Z,78.26
2022-11-26T12:51:27.467Z,78.85
2022-11-26T12:54:56.929Z,78.28
2022-11-26T12:58:17.091Z,77.93
2022-11-26T13:01:24.648Z,77.03
2022-11-26T13:04:39.435Z,76.94
2022-11-26T13:08:15.388Z,76.76
2022-11-26T13:11:43.851Z,77.00
2022-11-26T13:15:04.108Z,77.51
2022-11-26T13:18:32.606Z,77.57
2022-11-26T13:22:04.140Z,77.38
2022-11-26T13:25:47.592Z,77.89
2022-11-26T13:29:33.028Z,77.31
2022-11-26T13:33:32.400Z,77.57
2022-11-26T13:37:09.550Z,78.10
2022-11-26T13:40:57.375Z,77.68
2022-11-26T13:44:42.415Z,78.11
2022-11-26T13:47:58.154Z,77.61
2022-11-26T13:51:18.980Z,77.56
2022-11-26T13:54:33.871Z,77.17
2022-11-26T13:57:49.355Z,77.26
2022-11-26T14:00:58.080Z,77.30
2022-11-26T14:04:08.084Z,77.77
2022-11-26T14:07:24.134Z,77.71
2022-11-26T14:10:46.472Z,77.83
2022-11-26T14:14:37.663Z,77.50
2022-11-26T14:18:00.339Z,77.61
2022-11-26T14:21:16.821Z,77.20
2022-11-26T14:25:02.802Z,77.22
2022-11-26T14:28:13.406Z,76.78
2022-11-26T14:31:27.926Z,77.11
2022-11-26T14:34:44.401Z,77.07
2022-11-26T14:37:57.024Z,77.25
2022-11-26T14:41:05.622Z,77.67
2022-11-26T14:44:17.589Z,77.99
2022-11-26T14:47:25.771Z,77.67
2022-11-26T14:50:39.013Z,77.61
2022-11-26T14:53:51.757Z,77.58
2022-11-26T14:57:10.518Z,77.90
2022-11-26T15:00:27.997Z,77.85
2022-11-26T15:03:35.378Z,78.61
2022-11-26T15:06:46.336Z,79.07
2022-11-26T15:10:05.592Z,78.82
2022-11-26T15:13:26.237Z,78.46
2022-11-26T15:16:41.680Z,78.19
2022-11-26T15:19:52.023Z,77.84
2022-11-26T15:23:03.149Z,77.43
2022-11-26T15:26:09.949Z,77.56
2022-11-26T15:29:41.417Z,77.87
2022-11-26T15:32:47.520Z,78.34
2022-11-26T15:35:57.520Z,77.72
2022-11-26T15:39:08.217Z,77.74
2022-11-26T15:42:32.595Z,78.26
2022-11-26T15:45:44.568Z,78.34
2022-11-26T15:48:57.222Z,78.21
2022-11-26T15:52:09.275Z,78.90
2022-11-26T15:55:33.257Z,79.17
2022-11-26T15:58:44.521Z,79.21
2022-11-26T16:01:54.071Z,79.48
2022-11-26T16:05:02.342Z,80.36
2022-11-26T16:08:30.495Z,80.25
2022-11-26T16:11:39.401Z,81.12
2022-11-26T16:14:46.592Z,80.62
2022-11-26T16:17:56.745Z,80.77
2022-11-26T16:21:11.783Z,80.99
2022-11-26T16:24:33.751Z,82.27
2022-11-26T16:27:40.807Z,82.47
2022-11-26T16:30:48.542Z,83.22
2022-11-26T16:33:58.917Z,83.32
2022-11-26T16:37:19.205Z,82.70
2022-11-26T16:40:27.471Z,82.09
2022-11-26T16:43:33.826Z,81.71
2022-11-26T16:46:42.480Z,81.39
2022-11-26T16:49:51.891Z,80.88
2022-11-26T16:52:59.244Z,80.24
2022-11-26T16:56:05.369Z,80.29
2022-11-26T16:59:28.821Z,80.38
2022-11-26T17:02:38.167Z,80.09
2022-11-26T17:05:47.800Z,79.67
2022-11-26T17:08:55.020Z,80.75
2022-11-26T17:12:01.900Z,81.61
2022-11-26T17:15:09.105Z,82.01
2022-11-26T17:18:22.416Z,81.59
2022-11-26T17:21:31.158Z,80.93
2022-11-26T17:24:38.354Z,80.64
2022-11-26T17:27:45.642Z,81.10
2022-11-26T17:30:53.732Z,80.99
2022-11-26T17:33:59.911Z,81.48
2022-11-26T17:37:16.879Z,80.65
2022-11-26T17:40:27.293Z,81.07
2022-11-26T17:43:34.527Z,80.54
2022-11-26T17:47:08.995Z,80.19
2022-11-26T17:50:09.973Z,80.26
2022-11-26T17:53:18.515Z,80.00
2022-11-26T17:56:27.587Z,79.34
2022-11-26T17:59:34.108Z,79.19
2022-11-26T18:02:41.156Z,78.47
2022-11-26T18:05:47.301Z,78.98
2022-11-26T18:08:56.733Z,78.51
2022-11-26T18:12:04.456Z,79.14
2022-11-26T18:15:12.446Z,79.70
2022-11-26T18:18:18.454Z,79.23
2022-11-26T18:21:25.207Z,79.06
2022-11-26T18:24:34.111Z,79.68
2022-11-26T18:27:40.924Z,79.97
2022-11-26T18:30:47.037Z,79.61
2022-11-26T18:33:54.470Z,80.06
2022-11-26T18:37:00.481Z,80.09
2022-11-26T18:40:14.144Z,80.46
2022-11-26T18:43:20.257Z,79.97
2022-11-26T18:46:27.307Z,79.59
2022-11-26T18:49:33.525Z,79.56
2022-11-26T18:52:43.225Z,78.94
2022-11-26T18:55:52.061Z,78.74
2022-11-26T18:58:59.615Z,78.61
2022-11-26T19:02:06.065Z,78.24
2022-11-26T19:05:13.053Z,78.25
2022-11-26T19:08:19.847Z,79.21
2022-11-26T19:11:30.050Z,79.04
2022-11-26T19:14:35.948Z,79.59
2022-11-26T19:17:42.764Z,79.05
2022-11-26T19:20:55.643Z,78.76
2022-11-26T19:24:06.517Z,78.79
2022-11-26T19:27:16.571Z,79.06
2022-11-26T19:30:23.800Z,79.36
2022-11-26T19:33:32.672Z,79.59
2022-11-26T19:36:41.050Z,80.09
2022-11-26T19:39:47.887Z,80.12
2022-11-26T19:42:57.378Z,79.53
2022-11-26T19:46:08.903Z,79.51
2022-11-26T19:49:17.596Z,79.74
2022-11-26T19:52:23.584Z,79.34
2022-11-26T19:55:30.396Z,78.98
2022-11-26T19:58:40.353Z,78.57
2022-11-26T20:01:47.284Z,78.27
2022-11-26T20:04:53.235Z,78.24
2022-11-26T20:08:00.161Z,78.36
2022-11-26T20:11:07.683Z,78.44
2022-11-26T20:14:18.319Z,78.12
2022-11-26T20:17:24.651Z,78.37
2022-11-26T20:20:31.374Z,79.98
2022-11-26T20:23:37.296Z,78.05
2022-11-26T20:26:48.819Z,78.53
2022-11-26T20:29:57.288Z,77.66
2022-11-26T20:33:04.039Z,77.99
2022-11-26T20:36:13.250Z,77.79
2022-11-26T20:39:22.501Z,78.55
2022-11-26T20:42:28.482Z,78.58
2022-11-26T20:45:38.856Z,78.55
2022-11-26T20:48:47.596Z,79.02
2022-11-26T20:51:54.350Z,79.00
2022-11-26T20:55:00.255Z,78.56
2022-11-26T20:58:07.031Z,78.50
2022-11-26T21:01:21.139Z,78.71
2022-11-26T21:04:27.905Z,78.81
2022-11-26T21:07:34.004Z,78.28
2022-11-26T21:10:42.880Z,78.47
2022-11-26T21:13:49.034Z,78.42
2022-11-26T21:16:58.426Z,78.71
2022-11-26T21:20:04.519Z,79.14
2022-11-26T21:23:13.191Z,78.38
2022-11-26T21:26:22.157Z,78.57
2022-11-26T21:29:28.996Z,78.94
2022-11-26T21:32:37.679Z,78.13
2022-11-26T21:35:44.598Z,77.85
2022-11-26T21:38:52.614Z,77.89
2022-11-26T21:41:59.323Z,78.20
2022-11-26T21:45:05.466Z,78.94
2022-11-26T21:48:14.900Z,77.97
2022-11-26T21:51:22.892Z,77.88
2022-11-26T21:54:30.683Z,77.72
2022-11-26T21:57:38.701Z,78.00
2022-11-26T22:00:47.046Z,77.54
2022-11-26T22:03:59.235Z,77.82
2022-11-26T22:07:06.795Z,76.97
2022-11-26T22:10:14.568Z,77.12
2022-11-26T22:13:21.337Z,77.35
2022-11-26T22:16:30.686Z,76.54
2022-11-26T22:19:40.135Z,77.13
2022-11-26T22:22:46.263Z,76.76
2022-11-26T22:25:53.452Z,76.98
2022-11-26T22:29:00.109Z,76.83
2022-11-26T22:32:07.433Z,75.62
2022-11-26T22:35:16.157Z,76.31
2022-11-26T22:38:22.871Z,75.40
2022-11-26T22:41:29.511Z,74.87
2022-11-26T22:44:36.967Z,74.93
2022-11-26T22:47:42.873Z,75.52
2022-11-26T22:50:57.171Z,75.66
2022-11-26T22:54:05.227Z,75.33
2022-11-26T22:57:12.008Z,75.49
2022-11-26T23:00:51.818Z,74.85
2022-11-26T23:04:00.895Z,74.91
2022-11-26T23:07:09.852Z,74.16
2022-11-26T23:10:16.698Z,74.89
2022-11-26T23:13:22.766Z,74.23
2022-11-26T23:16:31.094Z,74.54
2022-11-26T23:19:37.233Z,75.38
2022-11-26T23:22:46.595Z,75.37
2022-11-26T23:25:52.546Z,74.98
2022-11-26T23:29:02.006Z,75.17
2022-11-26T23:32:08.137Z,74.87
2022-11-26T23:35:15.264Z,74.41
2022-11-26T23:38:24.048Z,74.63
2022-11-26T23:41:31.676Z,74.61
2022-11-26T23:44:37.576Z,75.26
2022-11-26T23:47:44.204Z,74.56
2022-11-26T23:50:50.062Z,73.61
2022-11-26T23:54:00.145Z,73.47
2022-11-26T23:57:09.249Z,74.16
